Flight Track Log - Related Links

Times and Time Zones

All times are in EDT time to prevent confusion due to time zone crossing. See the SRY660 flight status page for this flight to view local times or setup timezone preferences in your user account.

Time Position Orientation Groundspeed Altitude Reporting Facility
EDT Latitude Longitude Course Direction KTS MPH feet Rate Location/Type
Thu 10:23:45 AM 43.0667 -79.0167 236° Southwest 193 222 3,100  Level Buffalo TRACON
Thu 10:24:46 AM 43.0019 -79.0275 187° South 209 241 5,300 2,132 Climbing Cleveland Center
Thu 10:25:46 AM 42.9653 -79.0881 230° Southwest 189 217 7,400 2,150 Climbing Cleveland Center
Thu 10:26:46 AM 42.9347 -79.1397 231° Southwest 201 231 9,600 1,800 Climbing Cleveland Center
Thu 10:27:46 AM 42.9000 -79.2058 234° Southwest 201 231 11,000 1,600 Climbing Cleveland Center
Thu 10:28:00 AM 42.7047 -79.0157 188° South  Level FlightAware Approximate
Thu 10:28:46 AM 42.8611 -79.2689 230° Southwest 206 237 12,800  Level Cleveland Center
Thu 10:29:46 AM 42.8225 -79.3350 231° Southwest 213 245 14,000 600 Climbing Cleveland Center
Thu 10:30:46 AM 42.7753 -79.4094 229° Southwest 240 276 14,000  Level Cleveland Center
Thu 10:31:46 AM 42.7322 -79.4894 234° Southwest 256 295 14,000  Level Cleveland Center
Thu 10:32:46 AM 42.6831 -79.5664 229° Southwest 269 310 14,000  Level Cleveland Center
Thu 10:33:46 AM 42.6336 -79.6461 230° Southwest 275 316 14,000  Level Cleveland Center
Thu 10:34:46 AM 42.5864 -79.7258 231° Southwest 280 322 14,000  Level Cleveland Center
Thu 10:35:46 AM 42.5367 -79.8028 229° Southwest 280 322 14,000  Level Cleveland Center
Thu 10:36:46 AM 42.4936 -79.8819 234° Southwest 280 322 14,000  Level Cleveland Center
Thu 10:37:46 AM 42.4461 -79.9586 230° Southwest 286 329 14,000  Level Cleveland Center
Thu 10:38:46 AM 42.4028 -80.0350 232° Southwest 279 321 14,000  Level Cleveland Center
Thu 10:39:46 AM 42.3531 -80.1169 231° Southwest 279 321 14,000  Level Cleveland Center
Thu 10:40:46 AM 42.3011 -80.2014 230° Southwest 279 321 14,000 -150 Level Cleveland Center
Thu 10:41:46 AM 42.2533 -80.2775 230° Southwest 279 321 13,700 -750 Descending Cleveland Center
Thu 10:42:46 AM 42.2036 -80.3561 230° Southwest 279 321 12,500 -1,200 Descending Cleveland Center
Thu 10:43:46 AM 42.1578 -80.4319 231° Southwest 279 321 11,300 -1,250 Descending Cleveland Center
Thu 10:44:46 AM 42.1183 -80.5075 235° Southwest 269 310 10,000 -1,150 Descending Cleveland Center
Thu 10:45:46 AM 42.0831 -80.5719 234° Southwest 257 296 9,000 -650 Descending Cleveland Center
Thu 10:46:46 AM 42.0433 -80.6419 233° Southwest 244 281 8,700 -900 Descending Cleveland Center
Thu 10:47:46 AM 42.0017 -80.7144 232° Southwest 236 272 7,200 -1,300 Descending Cleveland Center
Thu 10:48:46 AM 41.9661 -80.7786 233° Southwest 228 262 6,100 -673 Descending Cleveland Center
Thu 10:49:33 AM 41.9389 -80.8233 231° Southwest 219 252 6,000 -63 Descending Cleveland Center
Thu 10:50:22 AM 41.9053 -80.8844 234° Southwest 228 262 6,000  Level Cleveland Center
Thu 10:51:23 AM 41.8678 -80.9511 233° Southwest 229 264 6,000  Level Cleveland Center
Thu 10:52:24 AM 41.8278 -81.0206 232° Southwest 229 264 6,000 -155 Level Cleveland Center
Thu 10:53:19 AM 41.7942 -81.0817 234° Southwest 227 261 5,700 -828 Descending Cleveland Center
Thu 10:54:20 AM 41.7583 -81.1483 234° Southwest 226 260 4,400 -1,289 Descending Cleveland Center
Thu 10:55:20 AM 41.7206 -81.2147 233° Southwest 222 255 3,100 -942 Descending Cleveland Center
Thu 10:56:21 AM 41.6783 -81.2864 232° Southwest 219 252 2,500 -246 Descending Cleveland Center
Thu 10:57:22 AM 41.6467 -81.3528 237° Southwest 212 244 2,600 49 Climbing Cleveland Center
Thu 10:58:23 AM 41.6214 -81.4219 244° Southwest 206 237 2,600  Level Cleveland Center
Thu 10:59:24 AM 41.5875 -81.4825 233° Southwest 205 236 2,600 -141 Level Cleveland Center
Thu 11:00:31 AM 41.5536 -81.5378 231° Southwest 153 176 2,300 -645 Descending Cleveland Center
Thu 11:01:25 AM 41.5475 -81.5125 108° East 119 137 1,300 -1,111 Descending Cleveland Center

Login

Don't have an account? Register now (free) for customized features, flight alerts, and more!